createdAt,value
2019-04-24T00:03:34.870Z,15.30
2019-04-24T00:11:54.765Z,15.75
2019-04-24T00:25:58.806Z,15.30
2019-04-24T00:28:49.721Z,15.20
2019-04-24T00:31:24.639Z,14.91
2019-04-24T00:34:00.206Z,14.95
2019-04-24T00:39:34.850Z,14.56
2019-04-24T00:44:57.157Z,14.43
2019-04-24T00:48:00.751Z,14.24
2019-04-24T00:50:36.431Z,14.24
2019-04-24T00:55:47.194Z,14.05
2019-04-24T01:01:35.085Z,13.91
2019-04-24T01:10:23.066Z,13.87
2019-04-24T01:19:15.858Z,13.85
2019-04-24T01:22:21.892Z,13.88
2019-04-24T01:24:54.192Z,13.80
2019-04-24T01:27:35.480Z,13.71
2019-04-24T01:33:19.845Z,13.91
2019-04-24T01:36:08.814Z,13.91
2019-04-24T01:39:12.670Z,13.61
2019-04-24T01:44:29.702Z,13.53
2019-04-24T01:56:03.815Z,13.27
2019-04-24T01:58:55.469Z,13.35
2019-04-24T02:01:35.381Z,13.10
2019-04-24T02:04:06.539Z,13.10
2019-04-24T02:07:30.620Z,12.86
2019-04-24T02:19:02.703Z,13.22
2019-04-24T02:21:53.657Z,12.95
2019-04-24T02:27:14.100Z,12.92
2019-04-24T02:30:11.937Z,12.84
2019-04-24T02:33:32.408Z,12.85
2019-04-24T02:36:41.781Z,12.85
2019-04-24T02:45:18.917Z,12.77
2019-04-24T02:50:33.300Z,12.75
2019-04-24T02:53:17.231Z,12.70
2019-04-24T02:55:56.131Z,12.57
2019-04-24T02:59:04.489Z,12.72
2019-04-24T03:01:15.048Z,12.72
2019-04-24T03:10:09.669Z,12.63
2019-04-24T03:15:35.301Z,12.53
2019-04-24T03:21:28.981Z,12.46
2019-04-24T03:32:41.484Z,12.34
2019-04-24T03:35:47.504Z,12.35
2019-04-24T03:41:07.273Z,12.37
2019-04-24T03:43:29.160Z,12.44
2019-04-24T03:46:37.610Z,12.48
2019-04-24T04:15:00.924Z,12.27
2019-04-24T04:20:16.919Z,12.15
2019-04-24T04:37:43.031Z,12.05
2019-04-24T04:55:21.118Z,12.18
2019-04-24T04:57:01.792Z,12.18
2019-04-24T05:06:03.497Z,12.18
2019-04-24T05:08:49.868Z,12.60
2019-04-24T05:11:04.431Z,12.89
2019-04-24T05:13:37.269Z,12.89
2019-04-24T05:19:15.034Z,12.85
2019-04-24T05:24:50.979Z,13.09
2019-04-24T05:39:37.577Z,13.69
2019-04-24T05:42:17.600Z,13.69
2019-04-24T05:44:44.924Z,13.68
2019-04-24T05:50:37.755Z,13.84
2019-04-24T05:59:33.470Z,14.25
2019-04-24T06:05:21.089Z,14.52
2019-04-24T06:10:54.485Z,14.81
2019-04-24T06:30:01.484Z,15.43
2019-04-24T06:38:36.192Z,15.69
2019-04-24T06:41:23.968Z,15.64
2019-04-24T06:47:46.686Z,15.83
2019-04-24T06:49:54.115Z,15.80
2019-04-24T06:55:36.462Z,16.17
2019-04-24T06:57:54.683Z,16.19
2019-04-24T07:12:57.084Z,16.55
2019-04-24T07:15:55.112Z,16.68
2019-04-24T07:18:31.566Z,16.81
2019-04-24T07:21:35.784Z,16.88
2019-04-24T07:24:23.196Z,17.12
2019-04-24T07:26:56.013Z,17.50
2019-04-24T07:32:52.094Z,17.50
2019-04-24T07:38:36.593Z,17.88
2019-04-24T07:44:13.326Z,17.96
2019-04-24T07:47:12.012Z,18.02
2019-04-24T07:49:46.679Z,18.09
2019-04-24T07:52:28.915Z,18.14
2019-04-24T08:04:28.337Z,18.32
2019-04-24T08:12:35.088Z,18.76
2019-04-24T08:20:43.127Z,19.30
2019-04-24T08:32:06.247Z,19.09
2019-04-24T08:41:21.952Z,19.36
2019-04-24T08:55:20.092Z,19.77
2019-04-24T09:12:47.558Z,20.05
2019-04-24T09:15:34.793Z,20.27
2019-04-24T09:18:06.210Z,20.14
2019-04-24T09:35:23.251Z,21.06
2019-04-24T09:38:16.506Z,21.04
2019-04-24T09:50:00.452Z,21.20
2019-04-24T09:53:02.930Z,21.21
2019-04-24T09:55:39.191Z,21.32
2019-04-24T10:02:03.216Z,21.07
2019-04-24T10:04:59.603Z,21.33
2019-04-24T10:10:23.766Z,21.11
2019-04-24T10:15:48.478Z,21.32
2019-04-24T10:21:58.517Z,22.21
2019-04-24T10:24:56.126Z,22.27
2019-04-24T10:27:24.735Z,22.12
2019-04-24T10:33:35.446Z,22.36
2019-04-24T10:48:00.273Z,22.64
2019-04-24T10:50:58.797Z,22.42
2019-04-24T10:53:50.918Z,22.48
2019-04-24T10:59:35.655Z,22.33
2019-04-24T11:11:01.124Z,22.60
2019-04-24T11:13:57.929Z,23.01
2019-04-24T11:17:14.216Z,22.97
2019-04-24T11:25:27.984Z,23.01
2019-04-24T11:37:36.196Z,23.05
2019-04-24T11:40:39.390Z,22.87
2019-04-24T11:53:03.058Z,23.34
2019-04-24T11:55:44.935Z,23.11
2019-04-24T12:04:33.594Z,23.51
2019-04-24T12:16:06.632Z,23.62
2019-04-24T12:26:57.717Z,23.49
2019-04-24T12:32:49.001Z,23.54
2019-04-24T12:36:05.914Z,23.24
2019-04-24T12:41:40.072Z,23.61
2019-04-24T12:44:26.537Z,23.15
2019-04-24T12:49:43.123Z,23.43
2019-04-24T12:52:11.237Z,23.67
2019-04-24T12:57:18.448Z,23.55
2019-04-24T12:59:51.446Z,23.56
2019-04-24T13:02:37.592Z,23.76
2019-04-24T13:05:24.421Z,23.83
2019-04-24T13:07:56.660Z,23.94
2019-04-24T13:12:59.383Z,24.25
2019-04-24T13:18:08.834Z,24.28
2019-04-24T13:20:07.137Z,24.52
2019-04-24T13:22:43.032Z,24.47
2019-04-24T13:25:58.146Z,24.58
2019-04-24T13:28:53.198Z,24.32
2019-04-24T13:33:43.093Z,23.94
2019-04-24T13:41:16.672Z,24.56
2019-04-24T13:44:06.153Z,24.62
2019-04-24T13:46:43.569Z,24.57
2019-04-24T13:48:57.662Z,24.62
2019-04-24T13:51:27.544Z,24.63
2019-04-24T13:54:08.810Z,24.58
2019-04-24T13:56:24.876Z,25.02
2019-04-24T13:58:58.639Z,25.02
2019-04-24T14:09:15.937Z,25.81
2019-04-24T14:21:50.393Z,25.97
2019-04-24T14:29:29.296Z,25.66
2019-04-24T14:31:58.411Z,25.74
2019-04-24T14:42:20.454Z,25.95
2019-04-24T14:44:48.439Z,26.14
2019-04-24T14:49:59.371Z,26.06
2019-04-24T14:52:27.212Z,25.83
2019-04-24T14:54:51.799Z,25.91
2019-04-24T14:59:57.248Z,25.88
2019-04-24T15:02:37.142Z,25.94
2019-04-24T15:04:55.883Z,25.83
2019-04-24T15:07:53.664Z,25.93
2019-04-24T15:10:03.694Z,25.93
2019-04-24T15:12:28.622Z,26.01
2019-04-24T15:17:37.880Z,25.71
2019-04-24T15:20:11.054Z,25.68
2019-04-24T15:22:46.594Z,25.75
2019-04-24T15:25:26.551Z,26.14
2019-04-24T15:27:35.561Z,26.27
2019-04-24T15:30:13.317Z,26.62
2019-04-24T15:32:43.201Z,26.82
2019-04-24T15:37:43.790Z,26.94
2019-04-24T15:40:29.799Z,27.00
2019-04-24T15:42:53.266Z,27.01
2019-04-24T15:45:15.695Z,26.86
2019-04-24T15:48:03.480Z,26.64
2019-04-24T15:50:27.406Z,26.29
2019-04-24T15:52:18.573Z,26.03
2019-04-24T15:54:48.269Z,26.00
2019-04-24T15:57:19.201Z,25.91
2019-04-24T16:00:13.496Z,25.67
2019-04-24T16:03:01.475Z,25.81
2019-04-24T16:04:55.234Z,26.24
2019-04-24T16:07:29.865Z,26.46
2019-04-24T16:10:00.845Z,26.68
2019-04-24T16:12:30.160Z,26.48
2019-04-24T16:15:20.799Z,26.42
2019-04-24T16:17:59.895Z,26.16
2019-04-24T16:20:35.008Z,25.91
2019-04-24T16:25:40.153Z,25.77
2019-04-24T16:28:08.193Z,25.60
2019-04-24T16:30:33.254Z,25.69
2019-04-24T16:33:10.963Z,25.63
2019-04-24T16:35:40.883Z,25.86
2019-04-24T16:38:18.391Z,25.89
2019-04-24T16:41:07.121Z,25.66
2019-04-24T16:45:59.364Z,25.32
2019-04-24T16:51:05.733Z,25.19
2019-04-24T16:56:21.043Z,24.01
2019-04-24T16:58:44.509Z,21.28
2019-04-24T17:01:24.692Z,19.32
2019-04-24T17:04:11.313Z,18.60
2019-04-24T17:11:30.367Z,17.50
2019-04-24T17:17:31.751Z,17.62
2019-04-24T17:20:07.948Z,17.60
2019-04-24T17:25:16.602Z,17.40
2019-04-24T17:28:02.751Z,17.33
2019-04-24T17:34:02.667Z,17.20
2019-04-24T17:36:21.312Z,17.11
2019-04-24T17:41:31.628Z,16.92
2019-04-24T17:47:18.406Z,16.60
2019-04-24T17:55:05.893Z,15.96
2019-04-24T17:59:40.779Z,15.80
2019-04-24T18:02:18.106Z,15.58
2019-04-24T18:04:47.429Z,15.13
2019-04-24T18:07:17.228Z,15.03
2019-04-24T18:09:46.557Z,15.04
2019-04-24T18:12:16.354Z,14.77
2019-04-24T18:14:45.679Z,14.77
2019-04-24T18:17:15.004Z,14.89
2019-04-24T18:19:44.331Z,14.67
2019-04-24T18:22:13.975Z,14.78
2019-04-24T18:24:52.133Z,14.78
2019-04-24T18:27:23.365Z,14.79
2019-04-24T18:29:53.171Z,14.65
2019-04-24T18:32:24.243Z,14.67
2019-04-24T18:34:53.573Z,14.67
2019-04-24T18:37:22.901Z,14.72
2019-04-24T18:39:52.219Z,14.60
2019-04-24T18:42:21.906Z,14.52
2019-04-24T18:44:52.005Z,14.52
2019-04-24T18:47:21.466Z,14.46
2019-04-24T18:49:51.920Z,14.49
2019-04-24T18:52:22.066Z,14.36
2019-04-24T18:54:52.036Z,14.42
2019-04-24T18:57:22.148Z,14.42
2019-04-24T18:59:51.878Z,14.54
2019-04-24T19:02:22.019Z,14.54
2019-04-24T19:04:51.637Z,14.47
2019-04-24T19:07:22.055Z,14.47
2019-04-24T19:09:53.267Z,14.33
2019-04-24T19:12:22.759Z,14.21
2019-04-24T19:14:52.377Z,14.30
2019-04-24T19:17:21.848Z,14.30
2019-04-24T19:19:52.795Z,14.31
2019-04-24T19:22:22.353Z,14.15
2019-04-24T19:24:51.674Z,14.15
2019-04-24T19:27:20.998Z,14.26
2019-04-24T19:29:51.110Z,14.10
2019-04-24T19:32:23.176Z,14.07
2019-04-24T19:34:52.410Z,14.07
2019-04-24T19:37:21.730Z,14.07
2019-04-24T19:39:51.061Z,13.92
2019-04-24T19:42:20.394Z,13.86
2019-04-24T19:44:51.508Z,13.86
2019-04-24T19:47:33.996Z,13.69
2019-04-24T19:49:51.790Z,13.70
2019-04-24T19:52:22.735Z,13.60
2019-04-24T19:54:52.322Z,13.65
2019-04-24T19:57:25.723Z,13.47
2019-04-24T19:59:52.899Z,13.38
2019-04-24T20:02:23.679Z,13.38
2019-04-24T20:04:53.130Z,13.19
2019-04-24T20:07:23.176Z,12.97
2019-04-24T20:10:03.301Z,12.80
2019-04-24T20:12:32.633Z,12.80
2019-04-24T20:15:03.597Z,12.71
2019-04-24T20:17:33.186Z,12.72
2019-04-24T20:20:03.315Z,12.72
2019-04-24T20:22:32.645Z,12.86
2019-04-24T20:25:05.782Z,13.00
2019-04-24T20:27:35.978Z,12.77
2019-04-24T20:30:10.121Z,12.93
2019-04-24T20:32:38.575Z,12.93
2019-04-24T20:35:08.070Z,12.78
2019-04-24T20:37:37.399Z,12.66
2019-04-24T20:40:07.068Z,12.35
2019-04-24T20:42:36.493Z,12.64
2019-04-24T20:45:07.469Z,12.64
2019-04-24T20:47:41.338Z,12.51
2019-04-24T20:50:13.783Z,12.40
2019-04-24T20:52:43.267Z,12.30
2019-04-24T20:55:12.947Z,12.30
2019-04-24T20:57:42.347Z,12.44
2019-04-24T21:00:11.917Z,12.14
2019-04-24T21:02:42.908Z,12.14
2019-04-24T21:05:13.386Z,12.14
2019-04-24T21:07:47.401Z,12.29
2019-04-24T21:10:19.028Z,12.21
2019-04-24T21:12:49.192Z,12.16
2019-04-24T21:15:23.231Z,12.03
2019-04-24T21:17:52.619Z,12.03
2019-04-24T21:20:22.872Z,12.11
2019-04-24T21:22:53.150Z,12.14
2019-04-24T21:25:24.188Z,11.97
2019-04-24T21:27:53.801Z,11.89
2019-04-24T21:30:23.839Z,11.80
2019-04-24T21:32:53.436Z,11.72
2019-04-24T21:35:22.756Z,11.71
2019-04-24T21:37:52.082Z,11.74
2019-04-24T21:40:22.927Z,11.74
2019-04-24T21:42:52.310Z,11.46
2019-04-24T21:45:22.244Z,11.60
2019-04-24T21:47:51.639Z,11.68
2019-04-24T21:50:22.071Z,11.60
2019-04-24T21:52:51.983Z,11.75
2019-04-24T21:55:21.477Z,11.73
2019-04-24T21:58:04.759Z,11.51
2019-04-24T22:00:47.286Z,11.23
2019-04-24T22:03:33.769Z,11.28
2019-04-24T22:06:04.514Z,11.20
2019-04-24T22:08:34.633Z,11.22
2019-04-24T22:11:04.484Z,11.28
2019-04-24T22:13:34.820Z,11.35
2019-04-24T22:16:04.547Z,11.15
2019-04-24T22:18:34.235Z,11.27
2019-04-24T22:21:07.957Z,11.14
2019-04-24T22:23:44.687Z,11.02
2019-04-24T22:26:18.313Z,10.98
2019-04-24T22:28:47.658Z,11.19
2019-04-24T22:31:18.634Z,11.10
2019-04-24T22:34:01.875Z,11.00
2019-04-24T22:36:32.689Z,11.01
2019-04-24T22:39:21.528Z,10.97
2019-04-24T22:41:51.019Z,10.90
2019-04-24T22:44:20.355Z,10.73
2019-04-24T22:46:49.852Z,10.73
2019-04-24T22:49:19.182Z,10.77
2019-04-24T22:51:48.502Z,10.82
2019-04-24T22:54:28.568Z,10.83
2019-04-24T22:56:55.212Z,10.76
2019-04-24T22:59:19.835Z,10.67
2019-04-24T23:01:58.349Z,10.84
2019-04-24T23:04:21.871Z,10.91
2019-04-24T23:06:51.540Z,10.88
2019-04-24T23:09:23.192Z,11.03
2019-04-24T23:11:52.587Z,11.03
2019-04-24T23:14:22.169Z,10.94
2019-04-24T23:16:51.971Z,10.66
2019-04-24T23:19:23.731Z,10.60
2019-04-24T23:22:02.111Z,10.64
2019-04-24T23:24:44.739Z,10.68
2019-04-24T23:27:06.072Z,10.76
2019-04-24T23:29:49.382Z,10.72
2019-04-24T23:32:29.138Z,10.80
2019-04-24T23:34:58.531Z,10.81
2019-04-24T23:37:27.864Z,10.76
2019-04-24T23:39:57.198Z,10.69
2019-04-24T23:42:26.559Z,10.51
2019-04-24T23:44:55.900Z,10.27
2019-04-24T23:47:25.278Z,10.24
2019-04-24T23:49:54.603Z,10.38
2019-04-24T23:52:23.928Z,10.44
2019-04-24T23:55:04.204Z,10.42
2019-04-24T23:57:33.692Z,10.38
